sensor_id;sensor_type;location;lat;lon;timestamp;P1;durP1;ratioP1;P2;durP2;ratioP2
13457;SDS011;6801;53.018;11.560;2023-11-21T00:02:24;11.75;;;7.32;;
13457;SDS011;6801;53.018;11.560;2023-11-21T00:04:52;11.80;;;7.28;;
13457;SDS011;6801;53.018;11.560;2023-11-21T00:07:20;11.50;;;7.25;;
13457;SDS011;6801;53.018;11.560;2023-11-21T00:09:47;11.55;;;7.65;;
13457;SDS011;6801;53.018;11.560;2023-11-21T00:12:15;13.82;;;8.20;;
13457;SDS011;6801;53.018;11.560;2023-11-21T00:14:43;10.98;;;6.70;;
13457;SDS011;6801;53.018;11.560;2023-11-21T00:17:10;13.25;;;7.85;;
13457;SDS011;6801;53.018;11.560;2023-11-21T00:19:37;10.45;;;6.22;;
13457;SDS011;6801;53.018;11.560;2023-11-21T00:22:04;11.07;;;7.35;;
13457;SDS011;6801;53.018;11.560;2023-11-21T00:24:33;13.77;;;8.63;;
13457;SDS011;6801;53.018;11.560;2023-11-21T00:27:00;12.43;;;8.30;;
13457;SDS011;6801;53.018;11.560;2023-11-21T00:29:28;14.63;;;8.82;;
13457;SDS011;6801;53.018;11.560;2023-11-21T00:31:55;12.50;;;8.60;;
13457;SDS011;6801;53.018;11.560;2023-11-21T00:34:22;16.60;;;8.75;;
13457;SDS011;6801;53.018;11.560;2023-11-21T00:36:49;14.40;;;8.40;;
13457;SDS011;6801;53.018;11.560;2023-11-21T00:39:16;13.88;;;8.80;;
13457;SDS011;6801;53.018;11.560;2023-11-21T00:41:44;15.23;;;9.45;;
13457;SDS011;6801;53.018;11.560;2023-11-21T00:44:12;13.48;;;8.27;;
13457;SDS011;6801;53.018;11.560;2023-11-21T00:46:39;11.93;;;7.32;;
13457;SDS011;6801;53.018;11.560;2023-11-21T00:49:06;10.35;;;6.28;;
13457;SDS011;6801;53.018;11.560;2023-11-21T00:51:33;11.02;;;5.97;;
13457;SDS011;6801;53.018;11.560;2023-11-21T00:54:01;8.57;;;5.63;;
13457;SDS011;6801;53.018;11.560;2023-11-21T00:56:28;10.07;;;5.90;;
13457;SDS011;6801;53.018;11.560;2023-11-21T00:58:57;7.38;;;5.03;;
13457;SDS011;6801;53.018;11.560;2023-11-21T01:01:24;10.13;;;5.78;;
13457;SDS011;6801;53.018;11.560;2023-11-21T01:03:51;9.48;;;5.45;;
13457;SDS011;6801;53.018;11.560;2023-11-21T01:06:19;12.13;;;6.38;;
13457;SDS011;6801;53.018;11.560;2023-11-21T01:08:47;9.02;;;5.45;;
13457;SDS011;6801;53.018;11.560;2023-11-21T01:11:14;11.23;;;5.95;;
13457;SDS011;6801;53.018;11.560;2023-11-21T01:13:42;7.53;;;5.03;;
13457;SDS011;6801;53.018;11.560;2023-11-21T01:16:11;10.48;;;4.97;;
13457;SDS011;6801;53.018;11.560;2023-11-21T01:18:39;8.90;;;5.47;;
13457;SDS011;6801;53.018;11.560;2023-11-21T01:21:06;8.43;;;5.40;;
13457;SDS011;6801;53.018;11.560;2023-11-21T01:23:34;8.20;;;5.30;;
13457;SDS011;6801;53.018;11.560;2023-11-21T01:26:01;8.40;;;5.50;;
13457;SDS011;6801;53.018;11.560;2023-11-21T01:28:29;8.57;;;5.47;;
13457;SDS011;6801;53.018;11.560;2023-11-21T01:30:56;6.70;;;5.03;;
13457;SDS011;6801;53.018;11.560;2023-11-21T01:33:25;8.48;;;5.15;;
13457;SDS011;6801;53.018;11.560;2023-11-21T01:35:52;8.40;;;5.40;;
13457;SDS011;6801;53.018;11.560;2023-11-21T01:38:20;7.15;;;4.95;;
13457;SDS011;6801;53.018;11.560;2023-11-21T01:40:47;8.80;;;5.55;;
13457;SDS011;6801;53.018;11.560;2023-11-21T01:43:14;9.90;;;5.53;;
13457;SDS011;6801;53.018;11.560;2023-11-21T01:45:42;8.60;;;6.40;;
13457;SDS011;6801;53.018;11.560;2023-11-21T01:48:10;7.70;;;5.90;;
13457;SDS011;6801;53.018;11.560;2023-11-21T01:50:39;7.82;;;5.10;;
13457;SDS011;6801;53.018;11.560;2023-11-21T01:53:07;8.93;;;5.78;;
13457;SDS011;6801;53.018;11.560;2023-11-21T01:55:35;11.60;;;6.22;;
13457;SDS011;6801;53.018;11.560;2023-11-21T01:58:03;9.88;;;6.05;;
13457;SDS011;6801;53.018;11.560;2023-11-21T02:00:32;9.10;;;5.88;;
13457;SDS011;6801;53.018;11.560;2023-11-21T02:03:00;8.52;;;6.25;;
13457;SDS011;6801;53.018;11.560;2023-11-21T02:05:27;11.40;;;6.72;;
13457;SDS011;6801;53.018;11.560;2023-11-21T02:07:56;10.30;;;5.57;;
13457;SDS011;6801;53.018;11.560;2023-11-21T02:10:23;10.27;;;5.95;;
13457;SDS011;6801;53.018;11.560;2023-11-21T02:12:51;11.00;;;5.63;;
13457;SDS011;6801;53.018;11.560;2023-11-21T02:15:19;12.07;;;6.43;;
13457;SDS011;6801;53.018;11.560;2023-11-21T02:17:47;11.40;;;6.53;;
13457;SDS011;6801;53.018;11.560;2023-11-21T02:20:16;10.20;;;6.85;;
13457;SDS011;6801;53.018;11.560;2023-11-21T02:22:48;11.73;;;6.97;;
13457;SDS011;6801;53.018;11.560;2023-11-21T02:25:17;9.10;;;6.57;;
13457;SDS011;6801;53.018;11.560;2023-11-21T02:27:45;10.50;;;6.00;;
13457;SDS011;6801;53.018;11.560;2023-11-21T02:30:14;9.13;;;6.32;;
13457;SDS011;6801;53.018;11.560;2023-11-21T02:32:41;11.07;;;6.53;;
13457;SDS011;6801;53.018;11.560;2023-11-21T02:35:09;9.70;;;6.35;;
13457;SDS011;6801;53.018;11.560;2023-11-21T02:37:37;9.68;;;6.38;;
13457;SDS011;6801;53.018;11.560;2023-11-21T02:40:09;8.18;;;5.15;;
13457;SDS011;6801;53.018;11.560;2023-11-21T02:42:37;8.25;;;5.50;;
13457;SDS011;6801;53.018;11.560;2023-11-21T02:45:06;7.40;;;4.88;;
13457;SDS011;6801;53.018;11.560;2023-11-21T02:47:34;8.68;;;5.78;;
13457;SDS011;6801;53.018;11.560;2023-11-21T02:50:01;9.95;;;5.57;;
13457;SDS011;6801;53.018;11.560;2023-11-21T02:52:28;8.02;;;5.25;;
13457;SDS011;6801;53.018;11.560;2023-11-21T02:54:58;9.13;;;5.68;;
13457;SDS011;6801;53.018;11.560;2023-11-21T02:57:26;7.60;;;5.50;;
13457;SDS011;6801;53.018;11.560;2023-11-21T02:59:53;8.88;;;5.68;;
13457;SDS011;6801;53.018;11.560;2023-11-21T03:02:21;10.45;;;5.50;;
13457;SDS011;6801;53.018;11.560;2023-11-21T03:04:48;7.47;;;5.18;;
13457;SDS011;6801;53.018;11.560;2023-11-21T03:07:15;10.40;;;6.05;;
13457;SDS011;6801;53.018;11.560;2023-11-21T03:09:44;9.38;;;5.35;;
13457;SDS011;6801;53.018;11.560;2023-11-21T03:12:11;9.50;;;5.28;;
13457;SDS011;6801;53.018;11.560;2023-11-21T03:14:40;8.05;;;4.88;;
13457;SDS011;6801;53.018;11.560;2023-11-21T03:17:07;8.50;;;5.30;;
13457;SDS011;6801;53.018;11.560;2023-11-21T03:19:34;8.82;;;4.65;;
13457;SDS011;6801;53.018;11.560;2023-11-21T03:22:01;8.35;;;5.22;;
13457;SDS011;6801;53.018;11.560;2023-11-21T03:24:29;7.70;;;5.00;;
13457;SDS011;6801;53.018;11.560;2023-11-21T03:26:56;8.75;;;4.80;;
13457;SDS011;6801;53.018;11.560;2023-11-21T03:29:23;7.43;;;4.90;;
13457;SDS011;6801;53.018;11.560;2023-11-21T03:31:52;9.50;;;4.95;;
13457;SDS011;6801;53.018;11.560;2023-11-21T03:34:23;8.90;;;5.32;;
13457;SDS011;6801;53.018;11.560;2023-11-21T03:36:52;9.25;;;4.90;;
13457;SDS011;6801;53.018;11.560;2023-11-21T03:39:19;9.38;;;5.72;;
13457;SDS011;6801;53.018;11.560;2023-11-21T03:41:48;9.05;;;4.75;;
13457;SDS011;6801;53.018;11.560;2023-11-21T03:44:17;9.30;;;5.55;;
13457;SDS011;6801;53.018;11.560;2023-11-21T03:46:44;7.57;;;4.70;;
13457;SDS011;6801;53.018;11.560;2023-11-21T03:49:12;9.50;;;4.88;;
13457;SDS011;6801;53.018;11.560;2023-11-21T03:51:40;7.63;;;4.18;;
13457;SDS011;6801;53.018;11.560;2023-11-21T03:54:07;6.45;;;4.32;;
13457;SDS011;6801;53.018;11.560;2023-11-21T03:56:38;7.78;;;5.03;;
13457;SDS011;6801;53.018;11.560;2023-11-21T03:59:05;7.13;;;4.68;;
13457;SDS011;6801;53.018;11.560;2023-11-21T04:01:32;7.05;;;4.82;;
13457;SDS011;6801;53.018;11.560;2023-11-21T04:03:59;10.73;;;5.53;;
13457;SDS011;6801;53.018;11.560;2023-11-21T04:06:28;9.48;;;5.28;;
13457;SDS011;6801;53.018;11.560;2023-11-21T04:08:55;8.43;;;4.95;;
13457;SDS011;6801;53.018;11.560;2023-11-21T04:11:22;8.80;;;5.32;;
13457;SDS011;6801;53.018;11.560;2023-11-21T04:13:49;8.48;;;4.63;;
13457;SDS011;6801;53.018;11.560;2023-11-21T04:16:16;9.73;;;5.55;;
13457;SDS011;6801;53.018;11.560;2023-11-21T04:18:43;7.88;;;5.60;;
13457;SDS011;6801;53.018;11.560;2023-11-21T04:21:10;6.57;;;4.97;;
13457;SDS011;6801;53.018;11.560;2023-11-21T04:23:39;10.50;;;5.20;;
13457;SDS011;6801;53.018;11.560;2023-11-21T04:26:06;9.55;;;6.15;;
13457;SDS011;6801;53.018;11.560;2023-11-21T04:28:33;9.55;;;5.60;;
13457;SDS011;6801;53.018;11.560;2023-11-21T04:31:00;8.85;;;5.60;;
13457;SDS011;6801;53.018;11.560;2023-11-21T04:33:27;9.57;;;5.93;;
13457;SDS011;6801;53.018;11.560;2023-11-21T04:35:55;10.35;;;5.75;;
13457;SDS011;6801;53.018;11.560;2023-11-21T04:38:22;10.25;;;6.00;;
13457;SDS011;6801;53.018;11.560;2023-11-21T04:40:51;9.55;;;6.22;;
13457;SDS011;6801;53.018;11.560;2023-11-21T04:43:17;8.95;;;6.18;;
13457;SDS011;6801;53.018;11.560;2023-11-21T04:45:44;8.73;;;5.72;;
13457;SDS011;6801;53.018;11.560;2023-11-21T04:48:12;8.75;;;5.38;;
13457;SDS011;6801;53.018;11.560;2023-11-21T04:50:39;12.25;;;5.50;;
13457;SDS011;6801;53.018;11.560;2023-11-21T04:53:06;8.68;;;5.90;;
13457;SDS011;6801;53.018;11.560;2023-11-21T04:55:33;14.02;;;6.05;;
13457;SDS011;6801;53.018;11.560;2023-11-21T04:58:01;8.57;;;5.65;;
13457;SDS011;6801;53.018;11.560;2023-11-21T05:00:29;8.65;;;5.88;;
13457;SDS011;6801;53.018;11.560;2023-11-21T05:02:56;10.23;;;5.38;;
13457;SDS011;6801;53.018;11.560;2023-11-21T05:05:23;8.13;;;5.10;;
13457;SDS011;6801;53.018;11.560;2023-11-21T05:07:50;10.13;;;5.53;;
13457;SDS011;6801;53.018;11.560;2023-11-21T05:10:18;8.45;;;5.13;;
13457;SDS011;6801;53.018;11.560;2023-11-21T05:12:45;11.15;;;6.15;;
13457;SDS011;6801;53.018;11.560;2023-11-21T05:15:15;9.43;;;5.18;;
13457;SDS011;6801;53.018;11.560;2023-11-21T05:17:43;8.95;;;5.82;;
13457;SDS011;6801;53.018;11.560;2023-11-21T05:20:10;9.13;;;5.65;;
13457;SDS011;6801;53.018;11.560;2023-11-21T05:22:42;9.90;;;5.57;;
13457;SDS011;6801;53.018;11.560;2023-11-21T05:25:09;8.35;;;5.80;;
13457;SDS011;6801;53.018;11.560;2023-11-21T05:27:36;9.00;;;5.63;;
13457;SDS011;6801;53.018;11.560;2023-11-21T05:30:03;12.50;;;5.93;;
13457;SDS011;6801;53.018;11.560;2023-11-21T05:32:33;8.40;;;5.95;;
13457;SDS011;6801;53.018;11.560;2023-11-21T05:35:00;10.32;;;6.70;;
13457;SDS011;6801;53.018;11.560;2023-11-21T05:37:27;12.48;;;6.45;;
13457;SDS011;6801;53.018;11.560;2023-11-21T05:39:55;10.27;;;6.32;;
13457;SDS011;6801;53.018;11.560;2023-11-21T05:42:22;10.73;;;7.10;;
13457;SDS011;6801;53.018;11.560;2023-11-21T05:44:49;9.88;;;6.63;;
13457;SDS011;6801;53.018;11.560;2023-11-21T05:47:16;10.45;;;5.82;;
13457;SDS011;6801;53.018;11.560;2023-11-21T05:49:44;9.82;;;5.88;;
13457;SDS011;6801;53.018;11.560;2023-11-21T05:52:15;8.27;;;5.68;;
13457;SDS011;6801;53.018;11.560;2023-11-21T05:54:43;9.82;;;6.60;;
13457;SDS011;6801;53.018;11.560;2023-11-21T05:57:10;10.70;;;6.47;;
13457;SDS011;6801;53.018;11.560;2023-11-21T05:59:37;10.13;;;6.22;;
13457;SDS011;6801;53.018;11.560;2023-11-21T06:02:04;15.07;;;7.07;;
13457;SDS011;6801;53.018;11.560;2023-11-21T06:04:33;11.70;;;5.53;;
13457;SDS011;6801;53.018;11.560;2023-11-21T06:07:01;10.05;;;5.53;;
13457;SDS011;6801;53.018;11.560;2023-11-21T06:09:29;9.07;;;6.40;;
13457;SDS011;6801;53.018;11.560;2023-11-21T06:11:56;11.30;;;5.90;;
13457;SDS011;6801;53.018;11.560;2023-11-21T06:14:23;9.63;;;6.18;;
13457;SDS011;6801;53.018;11.560;2023-11-21T06:16:50;8.23;;;5.53;;
13457;SDS011;6801;53.018;11.560;2023-11-21T06:19:18;9.80;;;6.15;;
13457;SDS011;6801;53.018;11.560;2023-11-21T06:21:45;8.45;;;5.50;;
13457;SDS011;6801;53.018;11.560;2023-11-21T06:24:14;8.63;;;5.43;;
13457;SDS011;6801;53.018;11.560;2023-11-21T06:26:42;9.40;;;5.40;;
13457;SDS011;6801;53.018;11.560;2023-11-21T06:29:10;10.10;;;5.90;;
13457;SDS011;6801;53.018;11.560;2023-11-21T06:31:38;7.20;;;4.93;;
13457;SDS011;6801;53.018;11.560;2023-11-21T06:34:06;8.93;;;5.65;;
13457;SDS011;6801;53.018;11.560;2023-11-21T06:36:35;8.35;;;5.78;;
13457;SDS011;6801;53.018;11.560;2023-11-21T06:39:02;8.65;;;5.55;;
13457;SDS011;6801;53.018;11.560;2023-11-21T06:44:04;10.00;;;6.07;;
13457;SDS011;6801;53.018;11.560;2023-11-21T06:46:33;11.98;;;6.00;;
13457;SDS011;6801;53.018;11.560;2023-11-21T06:49:01;10.38;;;6.07;;
13457;SDS011;6801;53.018;11.560;2023-11-21T06:51:28;8.35;;;5.80;;
13457;SDS011;6801;53.018;11.560;2023-11-21T06:53:56;9.52;;;5.55;;
13457;SDS011;6801;53.018;11.560;2023-11-21T06:56:23;9.48;;;5.90;;
13457;SDS011;6801;53.018;11.560;2023-11-21T06:58:52;11.05;;;6.00;;
13457;SDS011;6801;53.018;11.560;2023-11-21T07:01:20;8.85;;;5.63;;
13457;SDS011;6801;53.018;11.560;2023-11-21T07:03:48;11.40;;;6.05;;
13457;SDS011;6801;53.018;11.560;2023-11-21T07:06:16;10.70;;;5.68;;
13457;SDS011;6801;53.018;11.560;2023-11-21T07:08:43;9.15;;;5.65;;
13457;SDS011;6801;53.018;11.560;2023-11-21T07:11:11;11.30;;;6.32;;
13457;SDS011;6801;53.018;11.560;2023-11-21T07:13:38;10.82;;;6.50;;
13457;SDS011;6801;53.018;11.560;2023-11-21T07:16:08;12.10;;;6.10;;
13457;SDS011;6801;53.018;11.560;2023-11-21T07:18:35;8.75;;;5.90;;
13457;SDS011;6801;53.018;11.560;2023-11-21T07:21:03;9.55;;;6.38;;
13457;SDS011;6801;53.018;11.560;2023-11-21T07:23:32;10.48;;;6.45;;
13457;SDS011;6801;53.018;11.560;2023-11-21T07:25:59;9.68;;;6.10;;
13457;SDS011;6801;53.018;11.560;2023-11-21T07:28:29;11.93;;;7.18;;
13457;SDS011;6801;53.018;11.560;2023-11-21T07:30:57;10.30;;;6.70;;
13457;SDS011;6801;53.018;11.560;2023-11-21T07:33:27;10.05;;;6.40;;
13457;SDS011;6801;53.018;11.560;2023-11-21T07:35:54;9.27;;;5.82;;
13457;SDS011;6801;53.018;11.560;2023-11-21T07:38:22;10.93;;;6.55;;
13457;SDS011;6801;53.018;11.560;2023-11-21T07:40:50;9.63;;;6.13;;
13457;SDS011;6801;53.018;11.560;2023-11-21T07:43:20;9.17;;;5.93;;
13457;SDS011;6801;53.018;11.560;2023-11-21T07:45:49;9.80;;;6.25;;
13457;SDS011;6801;53.018;11.560;2023-11-21T07:48:16;13.20;;;6.75;;
13457;SDS011;6801;53.018;11.560;2023-11-21T07:50:44;10.02;;;5.22;;
13457;SDS011;6801;53.018;11.560;2023-11-21T07:53:13;10.73;;;6.30;;
13457;SDS011;6801;53.018;11.560;2023-11-21T07:55:40;9.02;;;5.88;;
13457;SDS011;6801;53.018;11.560;2023-11-21T07:58:07;9.60;;;6.05;;
13457;SDS011;6801;53.018;11.560;2023-11-21T08:00:34;9.52;;;5.85;;
13457;SDS011;6801;53.018;11.560;2023-11-21T08:03:01;10.25;;;5.75;;
13457;SDS011;6801;53.018;11.560;2023-11-21T08:05:28;7.43;;;4.90;;
13457;SDS011;6801;53.018;11.560;2023-11-21T08:07:56;13.23;;;5.57;;
13457;SDS011;6801;53.018;11.560;2023-11-21T08:10:23;8.82;;;5.70;;
13457;SDS011;6801;53.018;11.560;2023-11-21T08:12:51;8.75;;;4.97;;
13457;SDS011;6801;53.018;11.560;2023-11-21T08:15:18;7.82;;;5.70;;
13457;SDS011;6801;53.018;11.560;2023-11-21T08:17:46;9.75;;;5.35;;
13457;SDS011;6801;53.018;11.560;2023-11-21T08:20:13;9.57;;;6.25;;
13457;SDS011;6801;53.018;11.560;2023-11-21T08:22:41;10.95;;;6.22;;
13457;SDS011;6801;53.018;11.560;2023-11-21T08:25:10;13.00;;;6.18;;
13457;SDS011;6801;53.018;11.560;2023-11-21T08:27:38;9.93;;;5.95;;
13457;SDS011;6801;53.018;11.560;2023-11-21T08:30:05;9.77;;;6.40;;
13457;SDS011;6801;53.018;11.560;2023-11-21T08:32:33;11.27;;;6.10;;
13457;SDS011;6801;53.018;11.560;2023-11-21T08:35:00;8.98;;;5.78;;
13457;SDS011;6801;53.018;11.560;2023-11-21T08:37:27;9.00;;;5.88;;
13457;SDS011;6801;53.018;11.560;2023-11-21T08:39:57;9.15;;;6.50;;
13457;SDS011;6801;53.018;11.560;2023-11-21T08:42:26;14.27;;;6.43;;
13457;SDS011;6801;53.018;11.560;2023-11-21T08:44:55;9.57;;;5.65;;
13457;SDS011;6801;53.018;11.560;2023-11-21T08:47:23;8.55;;;5.60;;
13457;SDS011;6801;53.018;11.560;2023-11-21T08:49:51;9.90;;;5.80;;
13457;SDS011;6801;53.018;11.560;2023-11-21T08:52:20;8.70;;;5.00;;
13457;SDS011;6801;53.018;11.560;2023-11-21T08:54:48;10.88;;;5.22;;
13457;SDS011;6801;53.018;11.560;2023-11-21T08:57:21;8.15;;;5.75;;
13457;SDS011;6801;53.018;11.560;2023-11-21T08:59:49;8.45;;;5.35;;
13457;SDS011;6801;53.018;11.560;2023-11-21T09:02:20;8.85;;;5.78;;
13457;SDS011;6801;53.018;11.560;2023-11-21T09:04:48;9.02;;;4.93;;
13457;SDS011;6801;53.018;11.560;2023-11-21T09:07:16;7.68;;;4.80;;
13457;SDS011;6801;53.018;11.560;2023-11-21T09:09:45;7.35;;;4.47;;
13457;SDS011;6801;53.018;11.560;2023-11-21T09:12:12;7.47;;;4.85;;
13457;SDS011;6801;53.018;11.560;2023-11-21T09:14:39;8.35;;;5.05;;
13457;SDS011;6801;53.018;11.560;2023-11-21T09:17:09;8.68;;;5.18;;
13457;SDS011;6801;53.018;11.560;2023-11-21T09:19:37;6.45;;;4.43;;
13457;SDS011;6801;53.018;11.560;2023-11-21T09:22:04;6.50;;;3.97;;
13457;SDS011;6801;53.018;11.560;2023-11-21T09:24:31;7.03;;;4.90;;
13457;SDS011;6801;53.018;11.560;2023-11-21T09:26:58;8.43;;;4.25;;
13457;SDS011;6801;53.018;11.560;2023-11-21T09:29:26;7.65;;;4.60;;
13457;SDS011;6801;53.018;11.560;2023-11-21T09:31:54;6.20;;;4.07;;
13457;SDS011;6801;53.018;11.560;2023-11-21T09:34:25;6.55;;;3.88;;
13457;SDS011;6801;53.018;11.560;2023-11-21T09:36:52;8.25;;;4.45;;
13457;SDS011;6801;53.018;11.560;2023-11-21T09:39:19;11.23;;;4.50;;
13457;SDS011;6801;53.018;11.560;2023-11-21T09:41:48;9.25;;;3.83;;
13457;SDS011;6801;53.018;11.560;2023-11-21T09:44:17;5.80;;;3.95;;
13457;SDS011;6801;53.018;11.560;2023-11-21T09:46:48;5.95;;;3.90;;
13457;SDS011;6801;53.018;11.560;2023-11-21T09:49:16;7.13;;;3.90;;
13457;SDS011;6801;53.018;11.560;2023-11-21T09:51:49;8.18;;;3.65;;
13457;SDS011;6801;53.018;11.560;2023-11-21T09:54:20;5.78;;;3.30;;
13457;SDS011;6801;53.018;11.560;2023-11-21T09:56:47;5.85;;;3.80;;
13457;SDS011;6801;53.018;11.560;2023-11-21T09:59:15;5.82;;;3.90;;
13457;SDS011;6801;53.018;11.560;2023-11-21T10:01:42;7.10;;;4.10;;
13457;SDS011;6801;53.018;11.560;2023-11-21T10:04:09;5.68;;;3.50;;
13457;SDS011;6801;53.018;11.560;2023-11-21T10:06:38;5.93;;;3.80;;
13457;SDS011;6801;53.018;11.560;2023-11-21T10:09:08;5.47;;;3.63;;
13457;SDS011;6801;53.018;11.560;2023-11-21T10:11:37;7.53;;;3.53;;
13457;SDS011;6801;53.018;11.560;2023-11-21T10:14:08;5.75;;;2.92;;
13457;SDS011;6801;53.018;11.560;2023-11-21T10:16:38;5.40;;;2.63;;
13457;SDS011;6801;53.018;11.560;2023-11-21T10:19:06;3.95;;;2.70;;
13457;SDS011;6801;53.018;11.560;2023-11-21T10:21:36;3.45;;;2.25;;
13457;SDS011;6801;53.018;11.560;2023-11-21T10:24:05;4.78;;;2.72;;
13457;SDS011;6801;53.018;11.560;2023-11-21T10:26:34;5.13;;;2.65;;
13457;SDS011;6801;53.018;11.560;2023-11-21T10:29:02;3.92;;;2.63;;
13457;SDS011;6801;53.018;11.560;2023-11-21T10:31:29;4.32;;;2.88;;
13457;SDS011;6801;53.018;11.560;2023-11-21T10:34:10;4.78;;;2.42;;
13457;SDS011;6801;53.018;11.560;2023-11-21T10:36:40;5.22;;;2.85;;
13457;SDS011;6801;53.018;11.560;2023-11-21T10:39:07;4.40;;;2.40;;
13457;SDS011;6801;53.018;11.560;2023-11-21T10:41:36;6.30;;;2.83;;
13457;SDS011;6801;53.018;11.560;2023-11-21T10:44:05;5.70;;;2.85;;
13457;SDS011;6801;53.018;11.560;2023-11-21T10:46:34;3.88;;;2.63;;
13457;SDS011;6801;53.018;11.560;2023-11-21T10:49:01;7.25;;;3.50;;
13457;SDS011;6801;53.018;11.560;2023-11-21T10:51:28;6.65;;;2.45;;
13457;SDS011;6801;53.018;11.560;2023-11-21T10:53:55;5.75;;;2.67;;
13457;SDS011;6801;53.018;11.560;2023-11-21T10:56:25;5.93;;;2.70;;
13457;SDS011;6801;53.018;11.560;2023-11-21T10:58:56;5.68;;;2.85;;
13457;SDS011;6801;53.018;11.560;2023-11-21T11:01:23;5.85;;;2.78;;
13457;SDS011;6801;53.018;11.560;2023-11-21T11:03:55;6.72;;;3.33;;
13457;SDS011;6801;53.018;11.560;2023-11-21T11:06:22;5.43;;;3.10;;
13457;SDS011;6801;53.018;11.560;2023-11-21T11:08:52;2.90;;;2.20;;
13457;SDS011;6801;53.018;11.560;2023-11-21T11:11:20;4.28;;;2.40;;
13457;SDS011;6801;53.018;11.560;2023-11-21T11:13:47;7.68;;;2.78;;
13457;SDS011;6801;53.018;11.560;2023-11-21T11:16:16;4.57;;;2.90;;
13457;SDS011;6801;53.018;11.560;2023-11-21T11:18:44;5.07;;;2.50;;
13457;SDS011;6801;53.018;11.560;2023-11-21T11:21:15;4.38;;;2.85;;
13457;SDS011;6801;53.018;11.560;2023-11-21T11:23:55;4.43;;;2.83;;
13457;SDS011;6801;53.018;11.560;2023-11-21T11:26:36;5.25;;;2.70;;
13457;SDS011;6801;53.018;11.560;2023-11-21T11:29:11;5.22;;;2.80;;
13457;SDS011;6801;53.018;11.560;2023-11-21T11:31:49;4.13;;;2.47;;
13457;SDS011;6801;53.018;11.560;2023-11-21T11:34:23;4.22;;;2.55;;
13457;SDS011;6801;53.018;11.560;2023-11-21T11:36:58;3.58;;;2.60;;
13457;SDS011;6801;53.018;11.560;2023-11-21T11:39:28;4.30;;;2.65;;
13457;SDS011;6801;53.018;11.560;2023-11-21T11:41:56;4.90;;;2.90;;
13457;SDS011;6801;53.018;11.560;2023-11-21T11:47:23;6.80;;;3.03;;
13457;SDS011;6801;53.018;11.560;2023-11-21T11:49:56;5.47;;;3.15;;
13457;SDS011;6801;53.018;11.560;2023-11-21T11:52:37;5.97;;;3.38;;
13457;SDS011;6801;53.018;11.560;2023-11-21T11:55:06;5.43;;;3.50;;
13457;SDS011;6801;53.018;11.560;2023-11-21T11:57:36;6.15;;;3.30;;
13457;SDS011;6801;53.018;11.560;2023-11-21T12:00:08;4.30;;;3.00;;
13457;SDS011;6801;53.018;11.560;2023-11-21T12:02:37;5.03;;;2.97;;
13457;SDS011;6801;53.018;11.560;2023-11-21T12:05:08;7.07;;;3.15;;
13457;SDS011;6801;53.018;11.560;2023-11-21T12:07:43;7.80;;;3.53;;
13457;SDS011;6801;53.018;11.560;2023-11-21T12:10:15;5.07;;;3.33;;
13457;SDS011;6801;53.018;11.560;2023-11-21T12:12:45;5.45;;;2.97;;
13457;SDS011;6801;53.018;11.560;2023-11-21T12:15:13;5.95;;;3.33;;
13457;SDS011;6801;53.018;11.560;2023-11-21T12:17:42;8.90;;;3.72;;
13457;SDS011;6801;53.018;11.560;2023-11-21T12:20:10;7.82;;;4.00;;
13457;SDS011;6801;53.018;11.560;2023-11-21T12:22:43;5.03;;;3.05;;
13457;SDS011;6801;53.018;11.560;2023-11-21T12:25:14;7.55;;;3.40;;
13457;SDS011;6801;53.018;11.560;2023-11-21T12:27:44;6.68;;;3.35;;
13457;SDS011;6801;53.018;11.560;2023-11-21T12:30:14;5.78;;;3.08;;
13457;SDS011;6801;53.018;11.560;2023-11-21T12:32:44;7.20;;;3.80;;
13457;SDS011;6801;53.018;11.560;2023-11-21T12:35:15;6.88;;;3.50;;
13457;SDS011;6801;53.018;11.560;2023-11-21T12:37:44;8.07;;;3.90;;
13457;SDS011;6801;53.018;11.560;2023-11-21T12:40:12;7.60;;;3.40;;
13457;SDS011;6801;53.018;11.560;2023-11-21T12:42:40;6.40;;;3.70;;
13457;SDS011;6801;53.018;11.560;2023-11-21T12:45:09;5.72;;;3.40;;
13457;SDS011;6801;53.018;11.560;2023-11-21T12:47:47;6.00;;;3.60;;
13457;SDS011;6801;53.018;11.560;2023-11-21T12:50:15;10.02;;;4.18;;
13457;SDS011;6801;53.018;11.560;2023-11-21T12:52:47;6.88;;;3.88;;
13457;SDS011;6801;53.018;11.560;2023-11-21T12:55:15;5.47;;;3.50;;
13457;SDS011;6801;53.018;11.560;2023-11-21T12:57:44;5.95;;;2.83;;
13457;SDS011;6801;53.018;11.560;2023-11-21T13:00:12;5.30;;;2.90;;
13457;SDS011;6801;53.018;11.560;2023-11-21T13:02:54;6.43;;;3.53;;
13457;SDS011;6801;53.018;11.560;2023-11-21T13:05:24;6.60;;;3.50;;
13457;SDS011;6801;53.018;11.560;2023-11-21T13:07:56;6.65;;;3.58;;
13457;SDS011;6801;53.018;11.560;2023-11-21T13:10:25;7.55;;;4.18;;
13457;SDS011;6801;53.018;11.560;2023-11-21T13:12:56;8.40;;;4.05;;
13457;SDS011;6801;53.018;11.560;2023-11-21T13:15:25;8.82;;;4.15;;
13457;SDS011;6801;53.018;11.560;2023-11-21T13:17:54;6.57;;;3.90;;
13457;SDS011;6801;53.018;11.560;2023-11-21T13:20:23;8.40;;;3.97;;
13457;SDS011;6801;53.018;11.560;2023-11-21T13:22:51;7.28;;;3.88;;
13457;SDS011;6801;53.018;11.560;2023-11-21T13:25:22;6.60;;;3.55;;
13457;SDS011;6801;53.018;11.560;2023-11-21T13:27:52;8.18;;;3.58;;
13457;SDS011;6801;53.018;11.560;2023-11-21T13:30:20;6.88;;;3.63;;
13457;SDS011;6801;53.018;11.560;2023-11-21T13:32:52;7.05;;;3.90;;
13457;SDS011;6801;53.018;11.560;2023-11-21T13:35:23;6.95;;;3.60;;
13457;SDS011;6801;53.018;11.560;2023-11-21T13:38:03;9.00;;;4.03;;
13457;SDS011;6801;53.018;11.560;2023-11-21T13:40:31;9.05;;;3.88;;
13457;SDS011;6801;53.018;11.560;2023-11-21T13:43:05;6.63;;;3.15;;
13457;SDS011;6801;53.018;11.560;2023-11-21T13:45:35;7.88;;;3.72;;
13457;SDS011;6801;53.018;11.560;2023-11-21T13:48:02;7.15;;;4.18;;
13457;SDS011;6801;53.018;11.560;2023-11-21T13:50:34;6.95;;;4.35;;
13457;SDS011;6801;53.018;11.560;2023-11-21T13:53:01;5.97;;;3.75;;
13457;SDS011;6801;53.018;11.560;2023-11-21T13:55:35;7.72;;;4.13;;
13457;SDS011;6801;53.018;11.560;2023-11-21T13:58:05;7.95;;;3.75;;
13457;SDS011;6801;53.018;11.560;2023-11-21T14:00:35;7.20;;;3.80;;
13457;SDS011;6801;53.018;11.560;2023-11-21T14:03:10;6.80;;;3.85;;
13457;SDS011;6801;53.018;11.560;2023-11-21T14:05:45;9.40;;;4.22;;
13457;SDS011;6801;53.018;11.560;2023-11-21T14:08:16;6.43;;;3.90;;
13457;SDS011;6801;53.018;11.560;2023-11-21T14:10:45;6.57;;;3.78;;
13457;SDS011;6801;53.018;11.560;2023-11-21T14:15:43;6.32;;;3.70;;
13457;SDS011;6801;53.018;11.560;2023-11-21T14:18:11;8.98;;;3.92;;
13457;SDS011;6801;53.018;11.560;2023-11-21T14:20:42;5.50;;;3.30;;
13457;SDS011;6801;53.018;11.560;2023-11-21T14:23:11;6.43;;;3.55;;
13457;SDS011;6801;53.018;11.560;2023-11-21T14:25:38;7.53;;;4.22;;
13457;SDS011;6801;53.018;11.560;2023-11-21T14:28:07;6.30;;;3.88;;
13457;SDS011;6801;53.018;11.560;2023-11-21T14:30:37;7.32;;;3.75;;
13457;SDS011;6801;53.018;11.560;2023-11-21T14:33:05;8.18;;;4.53;;
13457;SDS011;6801;53.018;11.560;2023-11-21T14:35:33;7.50;;;4.25;;
13457;SDS011;6801;53.018;11.560;2023-11-21T14:38:02;6.88;;;4.03;;
13457;SDS011;6801;53.018;11.560;2023-11-21T14:40:31;8.02;;;3.83;;
13457;SDS011;6801;53.018;11.560;2023-11-21T14:43:00;8.55;;;3.85;;
13457;SDS011;6801;53.018;11.560;2023-11-21T14:45:30;8.90;;;4.13;;
13457;SDS011;6801;53.018;11.560;2023-11-21T14:47:57;7.45;;;4.20;;
13457;SDS011;6801;53.018;11.560;2023-11-21T14:50:31;7.47;;;3.88;;
13457;SDS011;6801;53.018;11.560;2023-11-21T14:53:22;6.38;;;3.95;;
13457;SDS011;6801;53.018;11.560;2023-11-21T14:56:09;7.05;;;4.30;;
13457;SDS011;6801;53.018;11.560;2023-11-21T14:58:35;8.43;;;3.70;;
13457;SDS011;6801;53.018;11.560;2023-11-21T15:01:04;5.88;;;3.88;;
13457;SDS011;6801;53.018;11.560;2023-11-21T15:03:31;7.90;;;4.28;;